Terminal Aerodrome Forecast
Issued by NWS

Home | Current Version | Previous Version | Text Only | Print | Product List | Glossary On
Versions: 1 2 3 4 5 6 7 8 9 10 11 12 13 14 15
000
FTPA31 PHFO 041735
TAFHNY
TAF
PHNY 041735Z 0418/0518 03006KT P6SM SCT025
     FM042000 24005KT P6SM BKN025
     FM050300 05011KT P6SM SCT025 BKN035
     FM050600 VRB03KT P6SM SCT025 SCT040=

USA.gov is the U.S. government's official web portal to all federal, state and local government web resources and services.